Terminal Aerodrome Forecast
Issued by NWS Omaha/Valley, NE

Home | Current Version | Previous Version | Text Only | Print | Product List | Glossary On
Versions: 1 2 3 4 5 6 7 8 9 10 11 12 13 14 15 16 17 18 19 20 21 22 23 24 25 26 27 28 29 30 31 32 33 34 35 36 37 38 39 40 41 42
000
FTUS43 KOAX 231720
TAFOFK
TAF
KOFK 231720Z 2318/2418 14014G22KT P6SM BKN015
     FM232000 15014G22KT P6SM SCT040
     FM240000 16010KT P6SM SCT030 BKN120
      TEMPO 2402/2406 5SM -TSRA OVC030CB
     FM241300 23009KT P6SM BKN120=

USA.gov is the U.S. government's official web portal to all federal, state and local government web resources and services.